createdAt,value
2023-03-10T00:00:50.296Z,4.80
2023-03-10T00:03:17.503Z,4.30
2023-03-10T00:05:44.816Z,5.27
2023-03-10T00:08:12.050Z,4.80
2023-03-10T00:10:39.382Z,4.93
2023-03-10T00:13:06.823Z,4.30
2023-03-10T00:15:34.110Z,4.30
2023-03-10T00:18:01.397Z,3.70
2023-03-10T00:20:28.813Z,3.80
2023-03-10T00:22:55.992Z,3.30
2023-03-10T00:25:23.436Z,3.67
2023-03-10T00:27:52.607Z,3.17
2023-03-10T00:30:19.933Z,3.40
2023-03-10T00:32:47.284Z,3.63
2023-03-10T00:35:14.626Z,3.50
2023-03-10T00:37:41.924Z,3.10
2023-03-10T00:40:15.599Z,3.47
2023-03-10T00:42:43.023Z,3.37
2023-03-10T00:45:10.562Z,2.80
2023-03-10T00:47:37.770Z,2.87
2023-03-10T00:50:05.500Z,3.07
2023-03-10T00:52:33.460Z,2.80
2023-03-10T00:55:00.711Z,2.97
2023-03-10T00:57:28.512Z,2.40
2023-03-10T00:59:56.038Z,3.10
2023-03-10T01:02:23.319Z,3.13
2023-03-10T01:04:50.811Z,2.87
2023-03-10T01:07:18.043Z,2.97
2023-03-10T01:09:45.338Z,2.70
2023-03-10T01:12:12.581Z,2.70
2023-03-10T01:14:39.891Z,2.40
2023-03-10T01:17:07.425Z,2.73
2023-03-10T01:19:34.670Z,2.20
2023-03-10T01:22:02.047Z,2.43
2023-03-10T01:24:29.484Z,2.37
2023-03-10T01:26:56.826Z,2.50
2023-03-10T01:29:24.179Z,2.27
2023-03-10T01:31:51.420Z,2.20
2023-03-10T01:34:18.698Z,2.10
2023-03-10T01:36:45.943Z,2.43
2023-03-10T01:39:13.890Z,2.10
2023-03-10T01:41:42.107Z,2.57
2023-03-10T01:44:15.035Z,1.97
2023-03-10T01:46:48.405Z,2.50
2023-03-10T01:49:27.842Z,2.33
2023-03-10T01:51:57.756Z,2.27
2023-03-10T01:54:26.671Z,2.30
2023-03-10T01:56:55.096Z,2.50
2023-03-10T01:59:24.491Z,2.50
2023-03-10T02:01:52.886Z,2.60
2023-03-10T02:04:28.584Z,2.37
2023-03-10T02:06:57.295Z,2.80
2023-03-10T02:09:25.620Z,2.67
2023-03-10T02:11:53.568Z,2.90
2023-03-10T02:14:21.113Z,3.10
2023-03-10T02:16:48.565Z,3.27
2023-03-10T02:19:22.367Z,2.80
2023-03-10T02:21:53.718Z,3.20
2023-03-10T02:24:28.088Z,3.43
2023-03-10T02:27:05.147Z,4.10
2023-03-10T02:29:52.371Z,3.60
2023-03-10T02:32:24.563Z,3.57
2023-03-10T02:34:52.185Z,3.10
2023-03-10T02:37:24.366Z,3.00
2023-03-10T02:39:53.554Z,2.67
2023-03-10T02:42:21.779Z,2.60
2023-03-10T02:44:54.466Z,2.33
2023-03-10T02:47:21.794Z,2.07
2023-03-10T02:49:49.501Z,1.90
2023-03-10T02:52:42.755Z,1.97
2023-03-10T02:55:15.313Z,1.50
2023-03-10T02:57:42.561Z,2.00
2023-03-10T03:00:11.265Z,2.00
2023-03-10T03:02:39.853Z,1.67
2023-03-10T03:05:07.445Z,1.60
2023-03-10T03:07:34.797Z,1.53
2023-03-10T03:10:03.575Z,1.77
2023-03-10T03:12:30.943Z,1.80
2023-03-10T03:14:58.318Z,1.57
2023-03-10T03:17:25.675Z,2.10
2023-03-10T03:19:52.899Z,2.00
2023-03-10T03:22:22.104Z,1.67
2023-03-10T03:24:49.591Z,1.60
2023-03-10T03:27:16.981Z,1.70
2023-03-10T03:29:45.505Z,1.83
2023-03-10T03:32:13.200Z,1.60
2023-03-10T03:34:41.098Z,1.60
2023-03-10T03:37:09.167Z,1.50
2023-03-10T03:39:39.566Z,1.90
2023-03-10T03:42:08.917Z,1.67
2023-03-10T03:44:55.128Z,1.80
2023-03-10T03:47:23.245Z,1.87
2023-03-10T03:49:50.835Z,1.63
2023-03-10T03:52:18.164Z,2.07
2023-03-10T03:54:46.294Z,2.20
2023-03-10T03:57:13.838Z,2.67
2023-03-10T03:59:41.086Z,2.70
2023-03-10T04:02:08.562Z,3.77
2023-03-10T04:04:35.854Z,3.77
2023-03-10T04:07:03.273Z,3.30
2023-03-10T04:09:31.127Z,4.10
2023-03-10T04:11:58.488Z,3.87
2023-03-10T04:14:26.030Z,4.47
2023-03-10T04:16:55.127Z,4.30
2023-03-10T04:19:22.536Z,4.53
2023-03-10T04:21:53.659Z,4.47
2023-03-10T04:24:20.883Z,4.63
2023-03-10T04:26:48.238Z,4.90
2023-03-10T04:29:15.531Z,4.80
2023-03-10T04:31:50.542Z,5.13
2023-03-10T04:34:27.311Z,4.73
2023-03-10T04:36:54.746Z,4.87
2023-03-10T04:39:22.028Z,4.87
2023-03-10T04:41:49.658Z,4.90
2023-03-10T04:44:29.839Z,4.73
2023-03-10T04:46:59.858Z,4.43
2023-03-10T04:49:27.710Z,3.57
2023-03-10T04:51:55.531Z,3.50
2023-03-10T04:54:22.788Z,2.13
2023-03-10T04:56:50.255Z,2.20
2023-03-10T04:59:20.066Z,1.87
2023-03-10T05:01:48.620Z,1.70
2023-03-10T05:04:15.917Z,1.50
2023-03-10T05:06:43.314Z,1.70
2023-03-10T05:09:22.189Z,1.50
2023-03-10T05:11:49.976Z,1.40
2023-03-10T05:14:18.040Z,1.60
2023-03-10T05:16:47.604Z,1.60
2023-03-10T05:19:15.099Z,1.40
2023-03-10T05:21:42.371Z,1.40
2023-03-10T05:24:10.358Z,1.40
2023-03-10T05:26:38.536Z,1.73
2023-03-10T05:29:06.470Z,1.63
2023-03-10T05:31:59.934Z,1.50
2023-03-10T05:34:32.536Z,1.30
2023-03-10T05:37:02.531Z,1.27
2023-03-10T05:39:30.445Z,1.40
2023-03-10T05:42:00.938Z,1.70
2023-03-10T05:44:31.582Z,1.27
2023-03-10T05:47:00.008Z,1.50
2023-03-10T05:49:27.507Z,1.50
2023-03-10T05:51:54.778Z,1.33
2023-03-10T05:54:22.501Z,1.20
2023-03-10T05:56:49.860Z,1.43
2023-03-10T05:59:18.387Z,1.37
2023-03-10T06:01:46.245Z,1.70
2023-03-10T06:04:13.757Z,1.50
2023-03-10T06:06:41.017Z,3.37
2023-03-10T06:09:08.244Z,1.43
2023-03-10T06:11:35.462Z,1.40
2023-03-10T06:14:02.789Z,1.47
2023-03-10T06:16:30.769Z,1.40
2023-03-10T06:18:58.462Z,1.50
2023-03-10T06:21:26.191Z,1.30
2023-03-10T06:23:53.669Z,1.37
2023-03-10T06:26:22.786Z,1.30
2023-03-10T06:28:50.131Z,1.50
2023-03-10T06:31:26.813Z,12.57
2023-03-10T06:33:54.409Z,1.80
2023-03-10T06:36:22.362Z,1.53
2023-03-10T06:38:49.815Z,1.23
2023-03-10T06:41:17.398Z,1.57
2023-03-10T06:43:44.796Z,1.40
2023-03-10T06:46:12.555Z,1.73
2023-03-10T06:48:40.491Z,1.40
2023-03-10T06:51:11.493Z,1.00
2023-03-10T06:53:38.822Z,1.33
2023-03-10T06:56:07.815Z,1.17
2023-03-10T06:58:36.685Z,1.17
2023-03-10T07:01:05.212Z,1.30
2023-03-10T07:03:32.658Z,1.30
2023-03-10T07:06:00.514Z,1.20
2023-03-10T07:08:31.148Z,1.07
2023-03-10T07:10:58.430Z,1.10
2023-03-10T07:13:27.312Z,1.47
2023-03-10T07:15:55.967Z,0.90
2023-03-10T07:18:27.765Z,1.30
2023-03-10T07:20:55.075Z,1.10
2023-03-10T07:23:22.650Z,1.30
2023-03-10T07:25:57.272Z,1.37
2023-03-10T07:28:25.754Z,1.30
2023-03-10T07:30:53.651Z,1.27
2023-03-10T07:33:21.249Z,1.17
2023-03-10T07:35:48.651Z,1.13
2023-03-10T07:38:16.222Z,1.40
2023-03-10T07:40:43.545Z,1.30
2023-03-10T07:43:10.830Z,1.30
2023-03-10T07:45:39.077Z,1.20
2023-03-10T07:48:06.471Z,1.20
2023-03-10T07:50:33.756Z,1.50
2023-03-10T07:53:01.084Z,0.93
2023-03-10T07:55:29.394Z,1.10
2023-03-10T07:57:57.579Z,1.00
2023-03-10T08:00:25.293Z,1.30
2023-03-10T08:02:52.799Z,1.17
2023-03-10T08:05:20.349Z,1.20
2023-03-10T08:07:47.717Z,1.20
2023-03-10T08:10:14.956Z,1.37
2023-03-10T08:12:42.300Z,1.30
2023-03-10T08:15:11.091Z,1.27
2023-03-10T08:17:38.352Z,1.10
2023-03-10T08:20:06.657Z,1.20
2023-03-10T08:22:33.984Z,1.10
2023-03-10T08:25:02.136Z,1.17
2023-03-10T08:27:30.134Z,1.07
2023-03-10T08:29:57.525Z,1.00
2023-03-10T08:32:24.985Z,1.13
2023-03-10T08:34:52.408Z,1.10
2023-03-10T08:37:19.707Z,1.10
2023-03-10T08:39:47.426Z,1.10
2023-03-10T08:42:14.761Z,1.20
2023-03-10T08:44:42.514Z,1.13
2023-03-10T08:47:09.825Z,0.80
2023-03-10T08:49:37.348Z,1.10
2023-03-10T08:52:04.733Z,1.13
2023-03-10T08:54:32.666Z,1.40
2023-03-10T08:57:00.772Z,1.10
2023-03-10T08:59:28.254Z,1.30
2023-03-10T09:01:55.560Z,1.20
2023-03-10T09:04:42.380Z,1.50
2023-03-10T09:07:09.947Z,1.40
2023-03-10T09:09:37.325Z,1.60
2023-03-10T09:12:04.972Z,1.43
2023-03-10T09:14:32.291Z,1.13
2023-03-10T09:16:59.712Z,2.20
2023-03-10T09:19:27.008Z,1.00
2023-03-10T09:21:55.381Z,1.60
2023-03-10T09:24:22.686Z,1.90
2023-03-10T09:26:50.449Z,1.53
2023-03-10T09:29:18.247Z,2.43
2023-03-10T09:31:47.741Z,1.50
2023-03-10T09:34:15.166Z,1.37
2023-03-10T09:36:42.585Z,2.33
2023-03-10T09:39:09.938Z,1.67
2023-03-10T09:41:55.924Z,1.50
2023-03-10T09:44:42.782Z,2.00
2023-03-10T09:47:10.154Z,2.10
2023-03-10T09:49:37.548Z,1.60
2023-03-10T09:52:23.801Z,1.60
2023-03-10T09:55:11.627Z,1.53
2023-03-10T09:57:40.139Z,1.50
2023-03-10T10:00:16.281Z,1.03
2023-03-10T10:02:47.208Z,1.60
2023-03-10T10:05:31.436Z,1.20
2023-03-10T10:08:22.893Z,1.43
2023-03-10T10:10:56.563Z,1.27
2023-03-10T10:13:45.171Z,1.03
2023-03-10T10:16:48.272Z,1.00
2023-03-10T10:19:22.374Z,1.27
2023-03-10T10:21:55.108Z,1.00
2023-03-10T10:24:22.302Z,0.77
2023-03-10T10:26:49.434Z,1.03
2023-03-10T10:29:22.261Z,1.00
2023-03-10T10:32:08.079Z,0.60
2023-03-10T10:34:37.188Z,0.90
2023-03-10T10:37:20.201Z,0.80
2023-03-10T10:39:49.697Z,0.80
2023-03-10T10:42:24.677Z,0.90
2023-03-10T10:44:54.431Z,0.63
2023-03-10T10:47:49.805Z,0.87
2023-03-10T10:50:26.923Z,0.93
2023-03-10T10:53:19.758Z,0.63
2023-03-10T10:56:05.133Z,0.90
2023-03-10T10:58:38.172Z,0.90
2023-03-10T11:01:16.695Z,1.00
2023-03-10T11:03:47.955Z,0.90
2023-03-10T11:06:29.549Z,0.53
2023-03-10T11:09:12.469Z,1.00
2023-03-10T11:12:01.000Z,0.80
2023-03-10T11:14:46.145Z,1.00
2023-03-10T11:17:53.296Z,0.90
2023-03-10T11:20:32.826Z,0.97
2023-03-10T11:23:18.774Z,1.00
2023-03-10T11:25:49.087Z,1.10
2023-03-10T11:28:23.128Z,1.50
2023-03-10T11:31:01.116Z,0.93
2023-03-10T11:33:44.993Z,0.90
2023-03-10T11:36:55.091Z,1.43
2023-03-10T11:39:45.630Z,0.90
2023-03-10T11:42:18.370Z,1.23
2023-03-10T11:44:59.429Z,1.10
2023-03-10T11:48:04.472Z,0.90
2023-03-10T11:50:34.422Z,1.10
2023-03-10T11:53:12.455Z,1.10
2023-03-10T11:55:41.130Z,1.10
2023-03-10T11:58:23.056Z,1.70
2023-03-10T12:00:53.768Z,1.03
2023-03-10T12:03:40.346Z,0.87
2023-03-10T12:06:19.863Z,1.10
2023-03-10T12:08:51.129Z,1.03
2023-03-10T12:11:22.730Z,0.90
2023-03-10T12:13:53.298Z,0.83
2023-03-10T12:16:38.597Z,1.27
2023-03-10T12:19:06.393Z,1.10
2023-03-10T12:21:33.762Z,1.13
2023-03-10T12:24:03.441Z,1.33
2023-03-10T12:26:39.920Z,0.90
2023-03-10T12:29:34.514Z,1.30
2023-03-10T12:32:01.810Z,1.20
2023-03-10T12:34:32.324Z,1.40
2023-03-10T12:37:09.630Z,1.20
2023-03-10T12:39:38.566Z,1.10
2023-03-10T12:42:28.652Z,1.10
2023-03-10T12:45:17.425Z,1.30
2023-03-10T12:47:47.856Z,1.10
2023-03-10T12:50:33.690Z,1.13
2023-03-10T12:53:22.841Z,1.30
2023-03-10T12:56:11.937Z,0.97
2023-03-10T12:58:57.518Z,1.47
2023-03-10T13:01:31.927Z,1.27
2023-03-10T13:03:59.111Z,1.20
2023-03-10T13:06:56.762Z,1.40
2023-03-10T13:09:32.316Z,1.37
2023-03-10T13:12:35.678Z,1.20
2023-03-10T13:15:08.222Z,1.10
2023-03-10T13:17:35.382Z,1.20
2023-03-10T13:20:17.438Z,0.90
2023-03-10T13:22:56.264Z,1.63
2023-03-10T13:25:24.513Z,1.10
2023-03-10T13:27:52.545Z,1.20
2023-03-10T13:30:26.688Z,1.37
2023-03-10T13:32:59.692Z,1.10
2023-03-10T13:35:38.350Z,1.10
2023-03-10T13:38:22.192Z,1.00
2023-03-10T13:40:56.889Z,1.30
2023-03-10T13:43:37.867Z,1.20
2023-03-10T13:46:09.927Z,1.00
2023-03-10T13:48:39.593Z,1.10
2023-03-10T13:51:18.116Z,1.17
2023-03-10T13:53:47.384Z,1.00
2023-03-10T13:56:33.661Z,1.00
2023-03-10T13:59:03.024Z,1.20
2023-03-10T14:01:34.316Z,1.20
2023-03-10T14:04:06.929Z,1.07
2023-03-10T14:06:36.044Z,1.20
2023-03-10T14:09:18.295Z,1.00
2023-03-10T14:11:47.884Z,0.93
2023-03-10T14:14:28.241Z,1.13
2023-03-10T14:16:58.282Z,1.30
2023-03-10T14:19:43.852Z,1.17
2023-03-10T14:22:40.429Z,1.00
2023-03-10T14:25:14.478Z,1.20
2023-03-10T14:27:44.349Z,1.20
2023-03-10T14:30:17.728Z,1.10
2023-03-10T14:32:45.090Z,0.90
2023-03-10T14:35:12.841Z,0.73
2023-03-10T14:37:40.141Z,1.00
2023-03-10T14:40:08.418Z,0.73
2023-03-10T14:42:35.821Z,0.70
2023-03-10T14:45:08.549Z,0.80
2023-03-10T14:47:36.118Z,0.87
2023-03-10T14:50:03.808Z,0.90
2023-03-10T14:52:31.121Z,1.00
2023-03-10T14:54:58.580Z,0.90
2023-03-10T14:57:28.566Z,0.90
2023-03-10T14:59:55.973Z,0.80
2023-03-10T15:02:24.276Z,1.00
2023-03-10T15:04:51.566Z,0.83
2023-03-10T15:07:19.212Z,0.77
2023-03-10T15:09:46.545Z,1.03
2023-03-10T15:12:15.196Z,1.20
2023-03-10T15:14:43.723Z,1.10
2023-03-10T15:17:13.253Z,1.03
2023-03-10T15:19:59.152Z,1.00
2023-03-10T15:22:26.436Z,1.00
2023-03-10T15:24:53.728Z,0.90
2023-03-10T15:27:21.142Z,1.00
2023-03-10T15:29:48.435Z,1.03
2023-03-10T15:32:15.686Z,1.23
2023-03-10T15:34:43.138Z,1.10
2023-03-10T15:37:10.687Z,1.33
2023-03-10T15:39:56.777Z,1.10
2023-03-10T15:42:25.209Z,0.90
2023-03-10T15:44:52.575Z,1.10
2023-03-10T15:47:19.958Z,1.10
2023-03-10T15:49:47.467Z,1.30
2023-03-10T15:52:14.776Z,1.23
2023-03-10T15:55:00.930Z,1.13
2023-03-10T15:57:28.214Z,1.40
2023-03-10T15:59:55.536Z,1.17
2023-03-10T16:02:22.999Z,1.37
2023-03-10T16:04:50.403Z,1.10
2023-03-10T16:07:17.726Z,1.10
2023-03-10T16:09:45.012Z,1.23
2023-03-10T16:12:12.263Z,2.00
2023-03-10T16:14:39.543Z,1.30
2023-03-10T16:17:06.841Z,0.97
2023-03-10T16:19:34.301Z,1.10
2023-03-10T16:22:01.718Z,1.30
2023-03-10T16:24:28.952Z,1.20
2023-03-10T16:26:56.226Z,1.50
2023-03-10T16:29:23.535Z,1.90
2023-03-10T16:31:51.060Z,2.50
2023-03-10T16:34:18.446Z,4.43
2023-03-10T16:36:45.963Z,2.00
2023-03-10T16:39:14.325Z,1.67
2023-03-10T16:41:43.150Z,1.80
2023-03-10T16:44:12.796Z,1.60
2023-03-10T16:46:40.220Z,1.80
2023-03-10T16:49:07.691Z,2.07
2023-03-10T16:51:35.549Z,1.40
2023-03-10T16:54:04.226Z,1.27
2023-03-10T16:56:32.917Z,1.53
2023-03-10T16:59:00.360Z,1.30
2023-03-10T17:01:28.380Z,2.10
2023-03-10T17:03:56.120Z,1.83
2023-03-10T17:06:31.564Z,1.87
2023-03-10T17:08:59.515Z,1.40
2023-03-10T17:11:31.280Z,1.53
2023-03-10T17:14:00.496Z,2.40
2023-03-10T17:16:31.764Z,1.40
2023-03-10T17:19:00.194Z,1.37
2023-03-10T17:21:29.721Z,2.63
2023-03-10T17:23:57.028Z,1.47
2023-03-10T17:26:25.837Z,2.07
2023-03-10T17:28:53.410Z,2.53
2023-03-10T17:31:28.315Z,1.30
2023-03-10T17:33:56.548Z,2.27
2023-03-10T17:36:23.897Z,1.40
2023-03-10T17:38:54.987Z,1.60
2023-03-10T17:41:22.709Z,1.63
2023-03-10T17:43:50.288Z,1.37
2023-03-10T17:46:18.961Z,1.07
2023-03-10T17:48:46.725Z,1.60
2023-03-10T17:51:17.744Z,1.20
2023-03-10T17:53:45.754Z,1.70
2023-03-10T17:56:13.693Z,1.43
2023-03-10T17:58:41.047Z,1.33
2023-03-10T18:01:09.817Z,1.50
2023-03-10T18:03:37.400Z,1.10
2023-03-10T18:06:05.480Z,1.20
2023-03-10T18:08:32.765Z,1.27
2023-03-10T18:11:04.335Z,1.40
2023-03-10T18:13:32.076Z,1.80
2023-03-10T18:15:59.441Z,1.40
2023-03-10T18:18:26.958Z,1.47
2023-03-10T18:20:54.247Z,1.27
2023-03-10T18:23:22.989Z,1.10
2023-03-10T18:25:50.931Z,1.37
2023-03-10T18:28:19.269Z,1.20
2023-03-10T18:30:48.062Z,1.23
2023-03-10T18:33:15.558Z,1.17
2023-03-10T18:35:44.475Z,1.03
2023-03-10T18:38:12.832Z,1.10
2023-03-10T18:40:40.260Z,1.30
2023-03-10T18:43:07.501Z,1.10
2023-03-10T18:45:35.124Z,1.40
2023-03-10T18:48:02.441Z,1.20
2023-03-10T18:50:29.741Z,1.30
2023-03-10T18:52:56.936Z,1.30
2023-03-10T18:55:24.284Z,1.00
2023-03-10T18:57:51.578Z,1.20
2023-03-10T19:00:19.213Z,1.07
2023-03-10T19:05:31.335Z,1.00
2023-03-10T19:07:58.718Z,1.30
2023-03-10T19:10:26.058Z,1.10
2023-03-10T19:12:53.462Z,1.27
2023-03-10T19:15:20.920Z,1.10
2023-03-10T19:17:48.427Z,1.60
2023-03-10T19:20:16.164Z,1.10
2023-03-10T19:22:43.854Z,1.30
2023-03-10T19:25:12.564Z,1.13
2023-03-10T19:27:40.578Z,1.00
2023-03-10T19:30:11.002Z,1.00
2023-03-10T19:32:39.283Z,1.10
2023-03-10T19:35:08.724Z,0.90
2023-03-10T19:37:36.912Z,1.00
2023-03-10T19:40:06.246Z,1.30
2023-03-10T19:42:34.536Z,1.17
2023-03-10T19:45:02.110Z,0.97
2023-03-10T19:47:33.126Z,0.90
2023-03-10T19:50:00.393Z,1.10
2023-03-10T19:52:27.854Z,1.03
2023-03-10T19:54:55.124Z,0.97
2023-03-10T19:57:23.101Z,1.00
2023-03-10T19:59:50.311Z,0.80
2023-03-10T20:02:18.582Z,1.20
2023-03-10T20:04:47.675Z,1.40
2023-03-10T20:07:14.952Z,1.10
2023-03-10T20:09:42.315Z,2.73
2023-03-10T20:12:09.550Z,1.03
2023-03-10T20:14:36.802Z,1.30
2023-03-10T20:17:04.065Z,1.27
2023-03-10T20:19:31.411Z,1.30
2023-03-10T20:21:58.629Z,1.10
2023-03-10T20:24:25.872Z,1.40
2023-03-10T20:26:53.116Z,1.33
2023-03-10T20:29:20.327Z,1.30
2023-03-10T20:31:47.583Z,1.40
2023-03-10T20:34:17.975Z,1.57
2023-03-10T20:36:45.718Z,1.60
2023-03-10T20:39:13.110Z,1.13
2023-03-10T20:41:40.589Z,1.10
2023-03-10T20:44:14.090Z,1.00
2023-03-10T20:46:42.609Z,3.63
2023-03-10T20:49:10.518Z,1.40
2023-03-10T20:51:38.364Z,1.20
2023-03-10T20:54:06.255Z,0.90
2023-03-10T20:56:33.657Z,1.10
2023-03-10T20:59:03.960Z,1.40
2023-03-10T21:01:31.560Z,0.90
2023-03-10T21:03:59.433Z,0.80
2023-03-10T21:06:27.487Z,0.90
2023-03-10T21:08:55.017Z,0.70
2023-03-10T21:11:22.270Z,1.00
2023-03-10T21:13:49.829Z,0.70
2023-03-10T21:16:20.606Z,0.77
2023-03-10T21:18:48.065Z,1.07
2023-03-10T21:21:15.759Z,0.97
2023-03-10T21:23:43.476Z,0.90
2023-03-10T21:26:15.140Z,0.87
2023-03-10T21:28:42.822Z,0.80
2023-03-10T21:31:10.427Z,1.30
2023-03-10T21:33:38.297Z,1.13
2023-03-10T21:36:06.477Z,0.90
2023-03-10T21:38:36.592Z,1.20
2023-03-10T21:41:04.867Z,0.97
2023-03-10T21:43:32.245Z,1.00
2023-03-10T21:45:59.557Z,0.83
2023-03-10T21:48:27.193Z,0.90
2023-03-10T21:50:54.562Z,1.00
2023-03-10T21:53:22.097Z,1.60
2023-03-10T21:55:49.547Z,0.93
2023-03-10T21:58:16.792Z,0.93
2023-03-10T22:00:45.245Z,1.00
2023-03-10T22:03:12.600Z,1.10
2023-03-10T22:05:39.892Z,1.10
2023-03-10T22:08:07.122Z,1.10
2023-03-10T22:10:34.560Z,1.20
2023-03-10T22:13:02.752Z,1.00
2023-03-10T22:15:30.248Z,1.00
2023-03-10T22:17:57.694Z,1.80
2023-03-10T22:20:26.114Z,4.77
2023-03-10T22:22:54.112Z,1.10
2023-03-10T22:25:21.871Z,1.00
2023-03-10T22:27:51.156Z,1.17
2023-03-10T22:30:19.071Z,1.17
2023-03-10T22:32:46.863Z,10.60
2023-03-10T22:35:14.560Z,5.40
2023-03-10T22:37:42.286Z,1.00
2023-03-10T22:40:14.596Z,1.10
2023-03-10T22:42:42.351Z,1.20
2023-03-10T22:45:17.532Z,1.27
2023-03-10T22:47:45.281Z,0.90
2023-03-10T22:50:20.311Z,1.00
2023-03-10T22:52:47.897Z,1.13
2023-03-10T22:55:16.280Z,1.00
2023-03-10T22:57:44.569Z,1.10
2023-03-10T23:00:14.167Z,0.80
2023-03-10T23:02:42.281Z,0.90
2023-03-10T23:05:10.118Z,0.87
2023-03-10T23:07:37.578Z,0.80
2023-03-10T23:10:09.573Z,1.20
2023-03-10T23:12:39.230Z,1.00
2023-03-10T23:15:15.357Z,0.80
2023-03-10T23:17:46.611Z,1.00
2023-03-10T23:20:14.869Z,1.00
2023-03-10T23:22:43.498Z,1.10
2023-03-10T23:25:22.789Z,0.80
2023-03-10T23:27:50.120Z,1.20
2023-03-10T23:30:17.768Z,0.80
2023-03-10T23:32:46.397Z,1.00
2023-03-10T23:35:15.119Z,0.90
2023-03-10T23:37:42.829Z,1.10
2023-03-10T23:40:11.583Z,1.20
2023-03-10T23:42:39.533Z,1.00
2023-03-10T23:45:08.217Z,0.80
2023-03-10T23:47:35.964Z,0.70
2023-03-10T23:50:04.593Z,0.60
2023-03-10T23:52:32.032Z,0.80
2023-03-10T23:54:59.604Z,0.80
2023-03-10T23:57:27.042Z,0.63
2023-03-10T23:59:54.352Z,0.70
